Time,TemperatureF,DewpointF,PressureIn,WindDirection,WindDirectionDegrees,WindSpeedMPH,WindSpeedGustMPH,Humidity,HourlyPrecipIn,Conditions,Clouds,dailyrainin,SolarRadiationWatts/m^2,SoftwareType,DateUTC
2013-02-16 00:00:00,38.4,33.7,30.01,ENE,61,1.0,1.0,83,0.00,,,0.04,0,Wunderground v.1.15,2013-02-16 05:00:00,
2013-02-16 00:05:00,38.1,33.7,30.01,NE,38,1.0,2.0,84,0.00,,,0.00,0,Wunderground v.1.15,2013-02-16 05:05:00,
2013-02-16 00:10:00,38.0,33.9,30.01,NE,38,1.0,1.0,85,0.00,,,0.00,0,Wunderground v.1.15,2013-02-16 05:10:00,
2013-02-16 00:15:00,38.0,33.6,30.01,NE,38,1.0,1.0,84,0.00,,,0.00,0,Wunderground v.1.15,2013-02-16 05:15:00,
2013-02-16 00:25:00,38.0,33.9,30.01,NE,38,0.0,0.0,85,0.00,,,0.00,0,Wunderground v.1.15,2013-02-16 05:25:00,
2013-02-16 01:10:00,39.2,29.9,30.01,NW,322,3.0,5.0,69,0.00,,,0.00,0,Wunderground v.1.15,2013-02-16 06:10:00,
2013-02-16 01:15:00,39.1,29.4,30.01,WNW,303,3.0,7.0,68,0.00,,,0.00,0,Wunderground v.1.15,2013-02-16 06:15:00,
2013-02-16 01:25:00,39.1,28.7,30.01,NNW,327,4.0,4.0,66,0.00,,,0.00,0,Wunderground v.1.15,2013-02-16 06:25:00,
2013-02-16 01:35:00,38.7,28.7,30.01,NNW,337,3.0,4.0,67,0.00,,,0.00,0,Wunderground v.1.15,2013-02-16 06:35:00,
2013-02-16 01:45:00,38.6,28.2,30.01,NW,322,5.0,6.0,66,0.00,,,0.00,0,Wunderground v.1.15,2013-02-16 06:45:00,
2013-02-16 01:55:00,38.5,28.5,30.00,NNW,331,4.0,5.0,67,0.00,,,0.00,0,Wunderground v.1.15,2013-02-16 06:55:00,
2013-02-16 02:05:00,38.3,28.7,30.00,NW,324,2.0,2.0,68,0.00,,,0.00,0,Wunderground v.1.15,2013-02-16 07:05:00,
2013-02-16 02:10:00,38.2,28.6,30.00,NW,324,1.0,1.0,68,0.00,,,0.00,0,Wunderground v.1.15,2013-02-16 07:10:00,
2013-02-16 02:20:00,38.1,28.5,30.00,NW,324,0.0,1.0,68,0.00,,,0.00,0,Wunderground v.1.15,2013-02-16 07:20:00,
2013-02-16 02:30:00,38.0,28.7,30.00,NW,324,1.0,1.0,69,0.00,,,0.00,0,Wunderground v.1.15,2013-02-16 07:30:00,
2013-02-16 02:40:00,37.9,29.0,30.00,North,2,1.0,1.0,70,0.00,,,0.00,0,Wunderground v.1.15,2013-02-16 07:40:00,
2013-02-16 02:50:00,38.0,28.4,30.00,NNW,337,1.0,1.0,68,0.00,,,0.00,0,Wunderground v.1.15,2013-02-16 07:50:00,
2013-02-16 03:00:00,38.1,28.5,29.99,NW,325,2.0,2.0,68,0.00,,,0.00,0,Wunderground v.1.15,2013-02-16 08:00:00,
2013-02-16 03:10:00,38.2,28.2,30.00,NW,317,3.0,3.0,67,0.00,,,0.00,0,Wunderground v.1.15,2013-02-16 08:10:00,
2013-02-16 03:15:00,38.1,28.5,30.00,NW,317,2.0,3.0,68,0.00,,,0.00,0,Wunderground v.1.15,2013-02-16 08:15:00,
2013-02-16 03:25:00,37.9,28.3,29.99,NW,317,2.0,4.0,68,0.00,,,0.00,0,Wunderground v.1.15,2013-02-16 08:25:00,
2013-02-16 03:35:00,37.7,28.1,29.99,NW,318,1.0,2.0,68,0.00,,,0.00,0,Wunderground v.1.15,2013-02-16 08:35:00,
2013-02-16 03:45:00,37.5,27.5,29.99,NW,318,0.0,1.0,67,0.00,,,0.00,0,Wunderground v.1.15,2013-02-16 08:45:00,
2013-02-16 03:55:00,37.4,27.8,29.99,NW,318,0.0,0.0,68,0.00,,,0.00,0,Wunderground v.1.15,2013-02-16 08:55:00,
2013-02-16 04:05:00,37.3,28.1,29.99,NW,318,0.0,0.0,69,0.00,,,0.00,0,Wunderground v.1.15,2013-02-16 09:05:00,
2013-02-16 04:10:00,37.2,28.0,29.99,NW,318,0.0,0.0,69,0.00,,,0.00,0,Wunderground v.1.15,2013-02-16 09:10:00,
2013-02-16 04:20:00,37.8,26.3,29.99,NNW,337,4.0,4.0,63,0.00,,,0.00,0,Wunderground v.1.15,2013-02-16 09:20:00,
2013-02-16 04:30:00,37.7,27.4,29.99,NNW,328,3.0,4.0,66,0.00,,,0.00,0,Wunderground v.1.15,2013-02-16 09:30:00,
2013-02-16 04:40:00,37.7,27.0,29.99,NNW,329,4.0,4.0,65,0.00,,,0.00,0,Wunderground v.1.15,2013-02-16 09:40:00,
2013-02-16 04:50:00,37.7,26.6,29.99,NNW,330,3.0,3.0,64,0.00,,,0.00,0,Wunderground v.1.15,2013-02-16 09:50:00,
2013-02-16 05:00:00,37.7,27.0,29.99,NW,318,4.0,4.0,65,0.00,,,0.00,0,Wunderground v.1.15,2013-02-16 10:00:00,
2013-02-16 05:10:00,37.7,26.6,29.99,NW,326,3.0,3.0,64,0.00,,,0.00,0,Wunderground v.1.15,2013-02-16 10:10:00,
2013-02-16 05:20:00,37.6,26.5,29.99,NW,323,4.0,4.0,64,0.00,,,0.00,0,Wunderground v.1.15,2013-02-16 10:20:00,
2013-02-16 05:30:00,37.6,26.5,29.99,NW,314,3.0,3.0,64,0.00,,,0.00,0,Wunderground v.1.15,2013-02-16 10:30:00,
2013-02-16 05:35:00,37.5,26.8,29.99,NW,314,2.0,3.0,65,0.00,,,0.00,0,Wunderground v.1.15,2013-02-16 10:35:00,
2013-02-16 05:40:00,37.4,26.3,29.99,NW,314,1.0,1.0,64,0.00,,,0.00,0,Wunderground v.1.15,2013-02-16 10:40:00,
2013-02-16 05:50:00,37.3,25.8,29.98,NNE,27,1.0,4.0,63,0.00,,,0.00,0,Wunderground v.1.15,2013-02-16 10:50:00,
2013-02-16 06:00:00,37.2,25.8,29.99,NNE,27,1.0,1.0,63,0.00,,,0.00,0,Wunderground v.1.15,2013-02-16 11:00:00,
2013-02-16 06:05:00,37.1,26.0,29.99,NNE,27,0.0,2.0,64,0.00,,,0.00,0,Wunderground v.1.15,2013-02-16 11:05:00,
2013-02-16 06:15:00,36.9,26.2,29.99,NE,47,2.0,3.0,65,0.00,,,0.00,0,Wunderground v.1.15,2013-02-16 11:15:00,
2013-02-16 06:20:00,36.9,26.2,29.99,ENE,61,3.0,3.0,65,0.00,,,0.00,0,Wunderground v.1.15,2013-02-16 11:20:00,
2013-02-16 06:30:00,36.8,26.5,29.99,NNW,341,2.0,3.0,66,0.00,,,0.00,0,Wunderground v.1.15,2013-02-16 11:30:00,
2013-02-16 06:35:00,36.9,26.2,29.99,NNE,32,2.0,3.0,65,0.00,,,0.00,0,Wunderground v.1.15,2013-02-16 11:35:00,
2013-02-16 06:45:00,36.7,26.4,29.99,NNE,14,1.0,3.0,66,0.00,,,0.00,0,Wunderground v.1.15,2013-02-16 11:45:00,
2013-02-16 06:55:00,36.7,26.4,29.99,NNE,21,1.0,1.0,66,0.00,,,0.00,0,Wunderground v.1.15,2013-02-16 11:55:00,
2013-02-16 07:05:00,36.6,26.3,29.98,NNE,21,0.0,1.0,66,0.00,,,0.00,0,Wunderground v.1.15,2013-02-16 12:05:00,
2013-02-16 07:15:00,36.5,26.9,29.99,NNE,21,0.0,1.0,68,0.00,,,0.00,0,Wunderground v.1.15,2013-02-16 12:15:00,
2013-02-16 07:25:00,36.4,26.5,29.99,NNW,347,0.0,3.0,67,0.00,,,0.00,7,Wunderground v.1.15,2013-02-16 12:25:00,
2013-02-16 07:35:00,36.4,26.5,29.99,North,353,1.0,2.0,67,0.00,,,0.00,12,Wunderground v.1.15,2013-02-16 12:35:00,
2013-02-16 07:45:00,36.4,26.5,29.99,North,353,1.0,2.0,67,0.00,,,0.00,18,Wunderground v.1.15,2013-02-16 12:45:00,
2013-02-16 07:55:00,36.4,26.5,29.99,North,353,0.0,2.0,67,0.00,,,0.00,26,Wunderground v.1.15,2013-02-16 12:55:00,
2013-02-16 08:05:00,36.5,26.6,29.99,North,353,1.0,1.0,67,0.00,,,0.00,49,Wunderground v.1.15,2013-02-16 13:05:00,
2013-02-16 08:15:00,36.6,27.0,29.99,NW,318,1.0,3.0,68,0.00,,,0.00,44,Wunderground v.1.15,2013-02-16 13:15:00,
2013-02-16 08:20:00,36.6,26.7,29.99,NW,319,2.0,2.0,67,0.00,,,0.00,39,Wunderground v.1.15,2013-02-16 13:20:00,
2013-02-16 08:30:00,36.6,26.3,29.98,NNW,327,2.0,2.0,66,0.00,,,0.00,67,Wunderground v.1.15,2013-02-16 13:30:00,
2013-02-16 08:40:00,36.8,26.5,29.98,NW,326,1.0,1.0,66,0.00,,,0.00,65,Wunderground v.1.15,2013-02-16 13:40:00,
2013-02-16 08:50:00,36.9,26.6,29.98,NNW,342,2.0,2.0,66,0.00,,,0.00,76,Wunderground v.1.15,2013-02-16 13:50:00,
2013-02-16 08:55:00,37.0,27.4,29.98,NNW,342,1.0,2.0,68,0.00,,,0.00,95,Wunderground v.1.15,2013-02-16 13:55:00,
2013-02-16 09:05:00,37.0,26.3,29.97,ENE,62,3.0,4.0,65,0.00,,,0.00,107,Wunderground v.1.15,2013-02-16 14:05:00,
2013-02-16 09:15:00,37.1,27.2,29.97,NE,45,3.0,5.0,67,0.00,,,0.00,107,Wunderground v.1.15,2013-02-16 14:15:00,
2013-02-16 09:25:00,36.9,26.2,29.96,NE,52,3.0,5.0,65,0.00,,,0.00,98,Wunderground v.1.15,2013-02-16 14:25:00,
2013-02-16 09:35:00,37.1,26.4,29.96,ENE,66,2.0,6.0,65,0.00,,,0.00,148,Wunderground v.1.15,2013-02-16 14:35:00,
2013-02-16 09:45:00,37.2,26.9,29.96,North,10,3.0,3.0,66,0.00,,,0.00,134,Wunderground v.1.15,2013-02-16 14:45:00,
2013-02-16 09:50:00,37.2,26.1,29.96,East,82,4.0,6.0,64,0.00,,,0.00,153,Wunderground v.1.15,2013-02-16 14:50:00,
2013-02-16 10:00:00,37.3,27.0,29.96,ENE,70,4.0,4.0,66,0.00,,,0.00,186,Wunderground v.1.15,2013-02-16 15:00:00,
2013-02-16 10:10:00,37.4,26.3,29.95,NE,45,4.0,4.0,64,0.00,,,0.00,169,Wunderground v.1.15,2013-02-16 15:10:00,
2013-02-16 10:15:00,37.4,25.9,29.96,NE,41,3.0,4.0,63,0.00,,,0.00,121,Wunderground v.1.15,2013-02-16 15:15:00,
2013-02-16 10:25:00,37.1,25.7,29.96,NE,52,4.0,4.0,63,0.00,,,0.00,132,Wunderground v.1.15,2013-02-16 15:25:00,
2013-02-16 10:35:00,37.2,25.0,29.96,NE,53,2.0,2.0,61,0.00,,,0.00,127,Wunderground v.1.15,2013-02-16 15:35:00,
2013-02-16 10:40:00,37.2,25.4,29.96,ENE,77,2.0,2.0,62,0.00,,,0.00,123,Wunderground v.1.15,2013-02-16 15:40:00,
2013-02-16 10:50:00,37.3,25.8,29.96,NE,38,1.0,1.0,63,0.00,,,0.00,100,Wunderground v.1.15,2013-02-16 15:50:00,
2013-02-16 11:00:00,37.3,25.1,29.96,ENE,74,1.0,2.0,61,0.00,,,0.00,163,Wunderground v.1.15,2013-02-16 16:00:00,
2013-02-16 11:05:00,37.3,24.7,29.95,ENE,74,1.0,3.0,60,0.00,,,0.00,169,Wunderground v.1.15,2013-02-16 16:05:00,
2013-02-16 11:15:00,37.7,24.6,29.95,North,349,2.0,3.0,59,0.00,,,0.00,160,Wunderground v.1.15,2013-02-16 16:15:00,
2013-02-16 11:25:00,37.9,24.4,29.95,NNE,29,2.0,2.0,58,0.00,,,0.00,139,Wunderground v.1.15,2013-02-16 16:25:00,
2013-02-16 11:35:00,37.7,23.0,29.94,NNW,344,2.0,3.0,55,0.00,,,0.00,125,Wunderground v.1.15,2013-02-16 16:35:00,
2013-02-16 11:45:00,37.9,23.6,29.94,NNW,331,2.0,6.0,56,0.00,,,0.00,151,Wunderground v.1.15,2013-02-16 16:45:00,
2013-02-16 11:55:00,37.7,23.8,29.94,NW,323,3.0,6.0,57,0.00,,,0.00,128,Wunderground v.1.15,2013-02-16 16:55:00,
2013-02-16 12:00:00,37.7,23.4,29.94,NW,315,4.0,4.0,56,0.00,,,0.00,178,Wunderground v.1.15,2013-02-16 17:00:00,
2013-02-16 12:10:00,38.1,23.3,29.93,ENE,66,2.0,5.0,55,0.00,,,0.00,141,Wunderground v.1.15,2013-02-16 17:10:00,